Latest Coastal Weather Observations for South Johnstone

IDQ60701

Issued at 9:52 am EST Wednesday 16 October 2019 (issued every 10 minutes, with the page automatically refreshed every 10 minutes)

About coastal observations | Map of coastal stations | Coastal observations for QLD | Marine services | Other Formats
Station Details ID: 032037 Name: SOUTH JOHNSTONE EXP STN Lat: -17.61 Lon: 146.00 Height: 18.3 m
Data from the previous 72 hours. | See also: Recent months at South Johnstone
Date/Time
EST
Wind Sea
Height
m
Swell Vis
km
Cloud Weather Temp
°C
Press
hPa
Rain since
9am
mm
Dir  Spd
kts
Gust
kts
Height
m
Period
s
Dir
16/09:30am N 3 9 - - - - - - - 27.1 1015.8 0.0
16/09:00am N 4 6 - - - - - - - 26.2 1016.2 0.0
16/08:30am WSW 3 5 - - - - - - - 24.8 1016.3 0.0
16/08:00am WSW 4 6 - - - - - - - 23.4 1016.3 0.0
16/07:30am CALM 0 3 - - - - - - - 21.3 1016.2 0.0
16/07:00am W 3 6 - - - - - - - 19.4 1015.9 0.0
16/06:30am W 4 8 - - - - - - - 17.6 1015.3 0.0
16/06:00am WSW 6 9 - - - - - - - 17.4 1014.7 0.0
16/05:30am CALM 0 0 - - - - - - - 17.6 1014.4 0.0
16/05:00am CALM 0 0 - - - - - - - 17.6 1014.2 0.0
16/04:30am CALM 0 0 - - - - - - - 17.6 1013.7 0.0
16/04:00am CALM 0 0 - - - - - - - 17.8 1013.5 0.0
16/03:30am CALM 0 0 - - - - - - - 17.9 1013.2 0.0
16/03:00am CALM 0 3 - - - - - - - 18.0 1012.7 0.0
16/02:30am NW 1 4 - - - - - - - 17.8 1012.8 0.0
16/02:00am W 2 7 - - - - - - - 18.1 1013.0 0.0
16/01:30am W 5 8 - - - - - - - 18.4 1013.5 0.0
16/01:00am WNW 3 5 - - - - - - - 18.6 1013.7 0.0
16/12:30am W 4 6 - - - - - - - 19.0 1013.9 0.0
16/12:00am W 4 6 - - - - - - - 19.0 1013.9 0.0
 
Date/Time
EST
Wind Sea
Height
m
Swell Vis
km
Cloud Weather Temp
°C
Press
hPa
Rain since
9am
mm
Dir  Spd
kts
Gust
kts
Height
m
Period
s
Dir
15/11:30pm WSW 4 7 - - - - - - - 19.2 1014.0 0.0
15/11:00pm W 4 5 - - - - - - - 19.7 1013.9 0.0
15/10:30pm WNW 2 5 - - - - - - - 19.9 1014.0 0.0
15/10:00pm CALM 0 0 - - - - - - - 20.1 1013.8 0.0
15/09:30pm CALM 0 0 - - - - - - - 20.9 1013.7 0.0
15/09:00pm W 1 3 - - - - - - - 21.1 1013.6 0.0
15/08:30pm WSW 3 5 - - - - - - - 21.0 1013.4 0.0
15/08:00pm CALM 0 0 - - - - - - - 22.1 1013.4 0.0
15/07:30pm CALM 0 0 - - - - - - - 22.4 1013.2 0.0
15/07:00pm CALM 0 0 - - - - - - - 23.1 1012.9 0.0
15/06:30pm CALM 0 0 - - - - - - - 23.8 1012.5 0.0
15/06:00pm ENE 4 7 - - - - - - - 24.8 1012.2 0.0
15/05:30pm ENE 5 8 - - - - - - - 25.9 1012.0 0.0
15/05:00pm ENE 5 7 - - - - - - - 26.9 1011.7 0.0
15/04:30pm NE 6 10 - - - - - - - 27.3 1011.3 0.0
15/04:00pm NE 8 12 - - - - - - - 27.4 1011.6 0.0
15/03:30pm NE 8 12 - - - - - - - 27.4 1012.1 0.0
15/03:00pm ENE 8 12 - - - - - - - 27.9 1012.4 0.0
15/02:30pm NE 8 11 - - - - - - - 27.9 1012.8 0.0
15/02:00pm ENE 8 12 - - - - - - - 28.1 1013.2 0.0
15/01:30pm NE 8 12 - - - - - - - 28.3 1013.6 0.0
15/01:00pm NE 9 14 - - - - - - - 28.8 1013.8 0.0
15/12:30pm ENE 6 10 - - - - - - - 28.8 1014.2 0.0
15/12:00pm NE 7 11 - - - - - - - 28.8 1014.6 0.0
15/11:30am NNE 4 7 - - - - - - - 29.5 1015.1 0.0
15/11:00am NNE 3 8 - - - - - - - 28.3 1015.7 0.0
15/10:30am NW 2 5 - - - - - - - 27.7 1016.2 0.0
15/10:00am NNE 4 8 - - - - - - - 27.2 1016.7 0.0
15/09:30am N 2 6 - - - - - - - 26.4 1017.0 0.0
15/09:00am CALM 0 1 - - - - - - - 25.7 1017.1 0.0
15/08:30am WNW 1 4 - - - - - - - 24.2 1017.2 0.0
15/08:00am W 1 4 - - - - - - - 22.0 1017.2 0.0
15/07:30am WNW 4 6 - - - - - - - 19.7 1017.1 0.0
15/07:00am NW 3 4 - - - - - - - 17.7 1016.9 0.0
15/06:30am WNW 3 6 - - - - - - - 16.6 1016.5 0.0
15/06:00am WNW 4 6 - - - - - - - 16.5 1016.1 0.0
15/05:30am CALM 0 3 - - - - - - - 16.5 1016.1 0.0
15/05:00am W 1 4 - - - - - - - 16.9 1015.9 0.0
15/04:30am W 2 4 - - - - - - - 17.1 1015.6 0.0
15/04:00am W 1 4 - - - - - - - 17.2 1015.7 0.0
15/03:30am WNW 3 5 - - - - - - - 17.5 1015.7 0.0
15/03:00am WSW 4 6 - - - - - - - 17.3 1015.7 0.0
15/02:30am W 4 6 - - - - - - - 17.5 1015.9 0.0
15/02:00am W 2 5 - - - - - - - 17.7 1016.1 0.0
15/01:30am WNW 3 5 - - - - - - - 17.9 1016.4 0.0
15/01:00am W 4 5 - - - - - - - 18.2 1016.6 0.0
15/12:30am WSW 3 5 - - - - - - - 18.3 1016.8 0.0
15/12:00am WNW 3 5 - - - - - - - 19.0 1017.0 0.0
 
Date/Time
EST
Wind Sea
Height
m
Swell Vis
km
Cloud Weather Temp
°C
Press
hPa
Rain since
9am
mm
Dir  Spd
kts
Gust
kts
Height
m
Period
s
Dir
14/11:30pm W 3 6 - - - - - - - 19.1 1017.3 0.0
14/11:00pm WSW 4 7 - - - - - - - 19.4 1017.3 0.0
14/10:30pm WNW 2 5 - - - - - - - 19.8 1017.3 0.0
14/10:00pm W 4 7 - - - - - - - 19.8 1017.2 0.0
14/09:30pm W 5 7 - - - - - - - 20.3 1017.0 0.0
14/09:00pm W 4 7 - - - - - - - 20.9 1016.8 0.0
14/08:30pm CALM 0 3 - - - - - - - 21.5 1016.7 0.0
14/08:00pm CALM 0 0 - - - - - - - 21.9 1016.6 0.0
14/07:30pm CALM 0 2 - - - - - - - 22.4 1016.2 0.0
14/07:00pm CALM 0 0 - - - - - - - 22.8 1015.9 0.0
14/06:30pm ESE 2 4 - - - - - - - 23.9 1015.5 0.0
14/06:00pm ENE 5 8 - - - - - - - 24.8 1015.0 0.0
14/05:30pm NE 5 8 - - - - - - - 25.6 1014.9 0.0
14/05:00pm NE 6 8 - - - - - - - 26.3 1014.7 0.0
14/04:30pm ENE 5 9 - - - - - - - 27.0 1014.7 0.0
14/04:00pm ENE 6 9 - - - - - - - 27.8 1014.8 0.0
14/03:30pm ENE 6 9 - - - - - - - 28.1 1014.9 0.0
14/03:00pm NE 8 12 - - - - - - - 28.5 1014.8 0.0
14/02:30pm NE 6 12 - - - - - - - 28.9 1015.1 0.0
14/02:00pm NNE 5 9 - - - - - - - 28.8 1015.3 0.0
14/01:30pm E 5 10 - - - - - - - 28.7 1015.7 0.0
14/01:00pm ENE 7 12 - - - - - - - 28.3 1016.2 0.0
14/12:30pm ENE 8 12 - - - - - - - 28.4 1016.7 0.0
14/12:00pm NNE 6 10 - - - - - - - 29.0 1017.1 0.0
14/11:30am NE 6 12 - - - - - - - 28.4 1017.5 0.0
14/11:00am NNE 4 8 - - - - - - - 28.9 1017.6 0.0
14/10:30am E 3 9 - - - - - - - 28.4 1017.6 0.0
14/10:00am NE 4 5 - - - - - - - 27.7 1017.8 0.0
14/09:30am NE 2 5 - - - - - - - 27.2 1018.0 0.0
14/09:00am SE 3 6 - - - - - - - 26.9 1017.9 0.0
14/08:30am SW 3 6 - - - - - - - 24.4 1018.0 0.0
14/08:00am W 2 4 - - - - - - - 22.6 1018.2 0.0
14/07:30am W 2 4 - - - - - - - 20.9 1018.0 0.0
14/07:00am SW 1 5 - - - - - - - 19.2 1017.4 0.0
14/06:30am CALM 0 0 - - - - - - - 18.4 1017.2 0.0
14/06:00am W 1 3 - - - - - - - 18.1 1016.5 0.0
14/05:30am W 4 5 - - - - - - - 18.3 1016.2 0.0
14/05:00am W 2 5 - - - - - - - 18.3 1015.7 0.0
14/04:30am W 2 5 - - - - - - - 18.6 1015.5 0.0
14/04:00am W 4 6 - - - - - - - 18.6 1015.5 0.0
14/03:30am W 1 4 - - - - - - - 18.8 1015.4 0.0
14/03:00am SW 4 6 - - - - - - - 18.6 1015.5 0.0
14/02:30am W 5 7 - - - - - - - 18.8 1015.8 0.0
14/02:00am W 3 6 - - - - - - - 18.9 1016.0 0.0
14/01:30am W 4 6 - - - - - - - 19.3 1016.0 0.0
14/01:00am WNW 3 7 - - - - - - - 19.4 1016.3 0.0
14/12:30am WNW 2 4 - - - - - - - 19.5 1016.3 0.0
14/12:00am W 3 7 - - - - - - - 19.8 1016.4 0.0
 
Date/Time
EST
Wind Sea
Height
m
Swell Vis
km
Cloud Weather Temp
°C
Press
hPa
Rain since
9am
mm
Dir  Spd
kts
Gust
kts
Height
m
Period
s
Dir
13/11:30pm WNW 3 6 - - - - - - - 20.0 1016.5 0.0
13/11:00pm WNW 3 5 - - - - - - - 20.6 1016.7 0.0
13/10:30pm W 3 6 - - - - - - - 20.9 1016.7 0.0
13/10:00pm W 4 6 - - - - - - - 21.1 1016.6 0.0
13/09:30pm W 3 5 - - - - - - - 21.4 1016.4 0.0
13/09:00pm W 4 6 - - - - - - - 21.9 1016.0 0.0
13/08:30pm WSW 6 7 - - - - - - - 21.8 1015.8 0.0
13/08:00pm CALM 0 0 - - - - - - - 22.5 1015.3 0.0
13/07:30pm CALM 0 0 - - - - - - - 22.5 1014.9 0.0
13/07:00pm CALM 0 0 - - - - - - - 22.9 1014.7 0.0
13/06:30pm CALM 0 3 - - - - - - - 24.3 1014.4 0.0
13/06:00pm ENE 5 6 - - - - - - - 25.0 1013.9 0.0
13/05:30pm NE 5 8 - - - - - - - 25.8 1013.7 0.0
13/05:00pm NE 6 8 - - - - - - - 26.6 1013.2 0.0
13/04:30pm ENE 6 9 - - - - - - - 27.2 1013.1 0.0
13/04:00pm NE 7 10 - - - - - - - 27.4 1013.1 0.0
13/03:30pm NE 7 11 - - - - - - - 28.4 1013.1 0.0
13/03:00pm ENE 8 12 - - - - - - - 29.0 1013.2 0.0
13/02:30pm E 7 12 - - - - - - - 29.8 1013.6 0.0
13/02:00pm E 7 12 - - - - - - - 29.7 1013.9 0.0
13/01:30pm NE 8 13 - - - - - - - 29.2 1014.1 0.0
13/01:00pm NE 6 11 - - - - - - - 29.6 1014.4 0.0
13/12:30pm ENE 6 12 - - - - - - - 29.5 1014.6 0.0
13/12:00pm ENE 7 11 - - - - - - - 29.5 1015.1 0.0
13/11:30am E 4 8 - - - - - - - 29.6 1015.6 0.0
13/11:00am ESE 4 6 - - - - - - - 29.0 1015.9 0.0
13/10:30am ENE 4 6 - - - - - - - 28.8 1016.3 0.0
13/10:00am ENE 4 7 - - - - - - - 28.1 1016.5 0.0

Other formats

Comma delimited format used in spreadsheet applications
http://www.bom.gov.au/fwo/IDQ60701/IDQ60701.95292.axf

JavaScript Object Notation format (JSON) in row-major order
http://www.bom.gov.au/fwo/IDQ60701/IDQ60701.95292.json

Data quality

Most of these data are generated automatically and are frequently updated. Quality checks on data are not normally performed. It is possible for incorrect values to appear. Refer to information at About Latest Weather Observations and please check the disclaimer before using these data.